sensor_id;sensor_type;location;lat;lon;timestamp;P1;durP1;ratioP1;P2;durP2;ratioP2
14116;SDS011;7137;51.436;6.544;2024-03-25T00:01:01;19.30;;;5.20;;
14116;SDS011;7137;51.436;6.544;2024-03-25T00:04:02;18.27;;;5.23;;
14116;SDS011;7137;51.436;6.544;2024-03-25T00:07:03;19.73;;;5.53;;
14116;SDS011;7137;51.436;6.544;2024-03-25T00:10:05;17.50;;;5.10;;
14116;SDS011;7137;51.436;6.544;2024-03-25T00:13:06;20.57;;;4.50;;
14116;SDS011;7137;51.436;6.544;2024-03-25T00:16:09;14.10;;;4.57;;
14116;SDS011;7137;51.436;6.544;2024-03-25T00:19:09;18.43;;;4.20;;
14116;SDS011;7137;51.436;6.544;2024-03-25T00:22:11;18.17;;;4.20;;
14116;SDS011;7137;51.436;6.544;2024-03-25T00:25:13;17.60;;;4.47;;
14116;SDS011;7137;51.436;6.544;2024-03-25T00:28:13;16.77;;;3.90;;
14116;SDS011;7137;51.436;6.544;2024-03-25T00:31:17;14.67;;;3.97;;
14116;SDS011;7137;51.436;6.544;2024-03-25T00:34:17;15.40;;;3.70;;
14116;SDS011;7137;51.436;6.544;2024-03-25T00:37:19;15.33;;;4.00;;
14116;SDS011;7137;51.436;6.544;2024-03-25T00:40:19;16.57;;;4.40;;
14116;SDS011;7137;51.436;6.544;2024-03-25T00:43:21;18.60;;;3.87;;
14116;SDS011;7137;51.436;6.544;2024-03-25T00:46:23;16.27;;;4.20;;
14116;SDS011;7137;51.436;6.544;2024-03-25T00:49:25;18.13;;;4.20;;
14116;SDS011;7137;51.436;6.544;2024-03-25T00:52:27;14.67;;;4.30;;
14116;SDS011;7137;51.436;6.544;2024-03-25T00:55:27;16.70;;;4.20;;
14116;SDS011;7137;51.436;6.544;2024-03-25T00:58:29;15.17;;;3.90;;
14116;SDS011;7137;51.436;6.544;2024-03-25T01:01:31;14.53;;;3.37;;
14116;SDS011;7137;51.436;6.544;2024-03-25T01:04:35;16.27;;;4.27;;
14116;SDS011;7137;51.436;6.544;2024-03-25T01:07:36;16.80;;;4.33;;
14116;SDS011;7137;51.436;6.544;2024-03-25T01:10:37;16.20;;;4.53;;
14116;SDS011;7137;51.436;6.544;2024-03-25T01:13:38;14.23;;;4.17;;
14116;SDS011;7137;51.436;6.544;2024-03-25T01:16:42;17.07;;;3.93;;
14116;SDS011;7137;51.436;6.544;2024-03-25T01:19:43;17.17;;;4.10;;
14116;SDS011;7137;51.436;6.544;2024-03-25T01:22:45;17.60;;;4.20;;
14116;SDS011;7137;51.436;6.544;2024-03-25T01:25:45;14.53;;;3.60;;
14116;SDS011;7137;51.436;6.544;2024-03-25T01:28:47;18.13;;;4.80;;
14116;SDS011;7137;51.436;6.544;2024-03-25T01:31:50;15.80;;;4.10;;
14116;SDS011;7137;51.436;6.544;2024-03-25T01:34:50;14.20;;;3.87;;
14116;SDS011;7137;51.436;6.544;2024-03-25T01:37:52;15.47;;;4.37;;
14116;SDS011;7137;51.436;6.544;2024-03-25T01:40:53;17.30;;;4.37;;
14116;SDS011;7137;51.436;6.544;2024-03-25T01:43:56;20.33;;;4.83;;
14116;SDS011;7137;51.436;6.544;2024-03-25T01:46:59;15.57;;;3.77;;
14116;SDS011;7137;51.436;6.544;2024-03-25T01:50:00;15.67;;;4.30;;
14116;SDS011;7137;51.436;6.544;2024-03-25T01:53:03;18.10;;;4.27;;
14116;SDS011;7137;51.436;6.544;2024-03-25T01:56:04;19.53;;;4.57;;
14116;SDS011;7137;51.436;6.544;2024-03-25T01:59:07;19.67;;;5.13;;
14116;SDS011;7137;51.436;6.544;2024-03-25T02:02:10;16.87;;;4.47;;
14116;SDS011;7137;51.436;6.544;2024-03-25T02:05:13;14.67;;;4.30;;
14116;SDS011;7137;51.436;6.544;2024-03-25T02:08:14;14.53;;;4.03;;
14116;SDS011;7137;51.436;6.544;2024-03-25T02:11:16;15.93;;;3.93;;
14116;SDS011;7137;51.436;6.544;2024-03-25T02:14:18;14.63;;;4.03;;
14116;SDS011;7137;51.436;6.544;2024-03-25T02:17:21;20.00;;;4.60;;
14116;SDS011;7137;51.436;6.544;2024-03-25T02:20:21;17.73;;;4.40;;
14116;SDS011;7137;51.436;6.544;2024-03-25T02:23:23;15.33;;;4.33;;
14116;SDS011;7137;51.436;6.544;2024-03-25T02:26:25;20.30;;;4.37;;
14116;SDS011;7137;51.436;6.544;2024-03-25T02:29:32;17.03;;;4.30;;
14116;SDS011;7137;51.436;6.544;2024-03-25T02:32:33;18.10;;;4.67;;
14116;SDS011;7137;51.436;6.544;2024-03-25T02:35:35;20.13;;;4.87;;
14116;SDS011;7137;51.436;6.544;2024-03-25T02:38:39;25.47;;;5.63;;
14116;SDS011;7137;51.436;6.544;2024-03-25T02:41:41;21.80;;;4.87;;
14116;SDS011;7137;51.436;6.544;2024-03-25T02:44:42;19.40;;;5.80;;
14116;SDS011;7137;51.436;6.544;2024-03-25T02:47:43;18.67;;;5.17;;
14116;SDS011;7137;51.436;6.544;2024-03-25T02:50:47;17.60;;;5.27;;
14116;SDS011;7137;51.436;6.544;2024-03-25T02:53:47;18.97;;;5.43;;
14116;SDS011;7137;51.436;6.544;2024-03-25T02:56:50;18.97;;;5.60;;
14116;SDS011;7137;51.436;6.544;2024-03-25T02:59:51;24.30;;;6.00;;
14116;SDS011;7137;51.436;6.544;2024-03-25T03:02:52;19.03;;;5.87;;
14116;SDS011;7137;51.436;6.544;2024-03-25T03:05:53;19.37;;;5.67;;
14116;SDS011;7137;51.436;6.544;2024-03-25T03:08:58;18.37;;;5.73;;
14116;SDS011;7137;51.436;6.544;2024-03-25T03:12:00;16.57;;;5.57;;
14116;SDS011;7137;51.436;6.544;2024-03-25T03:15:02;19.00;;;6.03;;
14116;SDS011;7137;51.436;6.544;2024-03-25T03:18:03;18.43;;;5.87;;
14116;SDS011;7137;51.436;6.544;2024-03-25T03:21:05;19.87;;;6.63;;
14116;SDS011;7137;51.436;6.544;2024-03-25T03:24:06;17.13;;;5.50;;
14116;SDS011;7137;51.436;6.544;2024-03-25T03:27:09;21.87;;;6.50;;
14116;SDS011;7137;51.436;6.544;2024-03-25T03:30:10;16.30;;;5.90;;
14116;SDS011;7137;51.436;6.544;2024-03-25T03:33:12;17.07;;;6.07;;
14116;SDS011;7137;51.436;6.544;2024-03-25T03:36:13;21.07;;;5.93;;
14116;SDS011;7137;51.436;6.544;2024-03-25T03:39:15;17.53;;;6.10;;
14116;SDS011;7137;51.436;6.544;2024-03-25T03:42:17;17.23;;;6.10;;
14116;SDS011;7137;51.436;6.544;2024-03-25T03:45:18;15.40;;;5.93;;
14116;SDS011;7137;51.436;6.544;2024-03-25T03:48:19;20.20;;;6.50;;
14116;SDS011;7137;51.436;6.544;2024-03-25T03:51:20;17.23;;;5.50;;
14116;SDS011;7137;51.436;6.544;2024-03-25T03:54:21;20.23;;;6.47;;
14116;SDS011;7137;51.436;6.544;2024-03-25T03:57:24;16.93;;;6.33;;
14116;SDS011;7137;51.436;6.544;2024-03-25T04:00:26;21.93;;;6.87;;
14116;SDS011;7137;51.436;6.544;2024-03-25T04:03:27;19.90;;;6.33;;
14116;SDS011;7137;51.436;6.544;2024-03-25T04:06:28;17.23;;;6.20;;
14116;SDS011;7137;51.436;6.544;2024-03-25T04:09:29;20.73;;;6.83;;
14116;SDS011;7137;51.436;6.544;2024-03-25T04:12:31;16.63;;;5.50;;
14116;SDS011;7137;51.436;6.544;2024-03-25T04:15:33;16.50;;;5.80;;
14116;SDS011;7137;51.436;6.544;2024-03-25T04:18:35;17.40;;;6.30;;
14116;SDS011;7137;51.436;6.544;2024-03-25T04:21:35;17.97;;;5.77;;
14116;SDS011;7137;51.436;6.544;2024-03-25T04:24:37;15.03;;;5.97;;
14116;SDS011;7137;51.436;6.544;2024-03-25T04:27:39;16.27;;;6.17;;
14116;SDS011;7137;51.436;6.544;2024-03-25T04:30:41;18.57;;;6.13;;
14116;SDS011;7137;51.436;6.544;2024-03-25T04:33:41;15.73;;;5.97;;
14116;SDS011;7137;51.436;6.544;2024-03-25T04:36:43;20.57;;;6.40;;
14116;SDS011;7137;51.436;6.544;2024-03-25T04:39:43;18.57;;;6.20;;
14116;SDS011;7137;51.436;6.544;2024-03-25T04:42:45;18.70;;;5.83;;
14116;SDS011;7137;51.436;6.544;2024-03-25T04:45:46;18.03;;;6.10;;
14116;SDS011;7137;51.436;6.544;2024-03-25T04:48:47;17.97;;;6.63;;
14116;SDS011;7137;51.436;6.544;2024-03-25T04:51:47;15.27;;;6.43;;
14116;SDS011;7137;51.436;6.544;2024-03-25T04:54:48;16.30;;;6.27;;
14116;SDS011;7137;51.436;6.544;2024-03-25T04:57:50;21.80;;;7.17;;
14116;SDS011;7137;51.436;6.544;2024-03-25T05:00:51;20.60;;;7.10;;
14116;SDS011;7137;51.436;6.544;2024-03-25T05:03:51;18.97;;;7.37;;
14116;SDS011;7137;51.436;6.544;2024-03-25T05:06:52;17.30;;;7.07;;
14116;SDS011;7137;51.436;6.544;2024-03-25T05:09:52;17.17;;;6.90;;
14116;SDS011;7137;51.436;6.544;2024-03-25T05:12:55;22.60;;;8.03;;
14116;SDS011;7137;51.436;6.544;2024-03-25T05:15:56;18.30;;;7.33;;
14116;SDS011;7137;51.436;6.544;2024-03-25T05:18:57;18.13;;;7.43;;
14116;SDS011;7137;51.436;6.544;2024-03-25T05:21:57;18.83;;;7.23;;
14116;SDS011;7137;51.436;6.544;2024-03-25T05:24:58;16.27;;;7.83;;
14116;SDS011;7137;51.436;6.544;2024-03-25T05:28:00;16.13;;;7.37;;
14116;SDS011;7137;51.436;6.544;2024-03-25T05:31:05;17.27;;;7.13;;
14116;SDS011;7137;51.436;6.544;2024-03-25T05:34:06;15.83;;;7.77;;
14116;SDS011;7137;51.436;6.544;2024-03-25T05:37:06;21.20;;;7.90;;
14116;SDS011;7137;51.436;6.544;2024-03-25T05:40:07;20.27;;;7.37;;
14116;SDS011;7137;51.436;6.544;2024-03-25T05:43:10;17.60;;;7.73;;
14116;SDS011;7137;51.436;6.544;2024-03-25T05:46:11;18.67;;;7.73;;
14116;SDS011;7137;51.436;6.544;2024-03-25T05:49:12;19.33;;;7.33;;
14116;SDS011;7137;51.436;6.544;2024-03-25T05:52:12;20.00;;;8.03;;
14116;SDS011;7137;51.436;6.544;2024-03-25T05:55:13;18.53;;;7.63;;
14116;SDS011;7137;51.436;6.544;2024-03-25T05:58:15;18.60;;;7.80;;
14116;SDS011;7137;51.436;6.544;2024-03-25T06:01:16;17.43;;;7.80;;
14116;SDS011;7137;51.436;6.544;2024-03-25T06:04:16;14.33;;;7.30;;
14116;SDS011;7137;51.436;6.544;2024-03-25T06:07:17;16.97;;;7.97;;
14116;SDS011;7137;51.436;6.544;2024-03-25T06:10:17;17.37;;;8.13;;
14116;SDS011;7137;51.436;6.544;2024-03-25T06:13:20;18.80;;;7.97;;
14116;SDS011;7137;51.436;6.544;2024-03-25T06:16:21;16.10;;;7.73;;
14116;SDS011;7137;51.436;6.544;2024-03-25T06:19:22;21.57;;;8.37;;
14116;SDS011;7137;51.436;6.544;2024-03-25T06:22:22;19.77;;;7.27;;
14116;SDS011;7137;51.436;6.544;2024-03-25T06:25:23;18.73;;;8.07;;
14116;SDS011;7137;51.436;6.544;2024-03-25T06:28:25;22.40;;;8.07;;
14116;SDS011;7137;51.436;6.544;2024-03-25T06:31:26;19.53;;;7.27;;
14116;SDS011;7137;51.436;6.544;2024-03-25T06:34:45;18.37;;;7.53;;
14116;SDS011;7137;51.436;6.544;2024-03-25T06:37:45;16.47;;;7.77;;
14116;SDS011;7137;51.436;6.544;2024-03-25T06:40:46;17.23;;;6.73;;
14116;SDS011;7137;51.436;6.544;2024-03-25T06:43:48;15.30;;;7.30;;
14116;SDS011;7137;51.436;6.544;2024-03-25T06:46:48;17.37;;;7.70;;
14116;SDS011;7137;51.436;6.544;2024-03-25T06:49:49;16.97;;;7.67;;
14116;SDS011;7137;51.436;6.544;2024-03-25T06:52:50;17.40;;;7.47;;
14116;SDS011;7137;51.436;6.544;2024-03-25T06:55:51;15.43;;;7.40;;
14116;SDS011;7137;51.436;6.544;2024-03-25T06:58:54;16.43;;;7.50;;
14116;SDS011;7137;51.436;6.544;2024-03-25T07:01:55;14.57;;;6.90;;
14116;SDS011;7137;51.436;6.544;2024-03-25T07:04:55;16.73;;;7.60;;
14116;SDS011;7137;51.436;6.544;2024-03-25T07:07:56;15.57;;;7.60;;
14116;SDS011;7137;51.436;6.544;2024-03-25T07:10:57;16.70;;;7.37;;
14116;SDS011;7137;51.436;6.544;2024-03-25T07:13:59;13.40;;;6.83;;
14116;SDS011;7137;51.436;6.544;2024-03-25T07:17:00;17.37;;;7.50;;
14116;SDS011;7137;51.436;6.544;2024-03-25T07:20:00;14.37;;;6.70;;
14116;SDS011;7137;51.436;6.544;2024-03-25T07:23:01;20.40;;;7.87;;
14116;SDS011;7137;51.436;6.544;2024-03-25T07:26:03;17.23;;;7.40;;
14116;SDS011;7137;51.436;6.544;2024-03-25T07:29:05;17.33;;;7.60;;
14116;SDS011;7137;51.436;6.544;2024-03-25T07:32:06;19.70;;;7.30;;
14116;SDS011;7137;51.436;6.544;2024-03-25T07:35:06;20.20;;;7.53;;
14116;SDS011;7137;51.436;6.544;2024-03-25T07:38:07;14.33;;;7.20;;
14116;SDS011;7137;51.436;6.544;2024-03-25T07:41:08;14.50;;;6.83;;
14116;SDS011;7137;51.436;6.544;2024-03-25T07:44:10;12.47;;;5.83;;
14116;SDS011;7137;51.436;6.544;2024-03-25T07:47:11;15.50;;;5.73;;
14116;SDS011;7137;51.436;6.544;2024-03-25T07:50:11;13.87;;;5.80;;
14116;SDS011;7137;51.436;6.544;2024-03-25T07:53:12;12.97;;;5.83;;
14116;SDS011;7137;51.436;6.544;2024-03-25T07:56:13;15.73;;;6.00;;
14116;SDS011;7137;51.436;6.544;2024-03-25T07:59:16;14.40;;;6.20;;
14116;SDS011;7137;51.436;6.544;2024-03-25T08:02:17;16.33;;;6.90;;
14116;SDS011;7137;51.436;6.544;2024-03-25T08:05:18;14.33;;;6.60;;
14116;SDS011;7137;51.436;6.544;2024-03-25T08:08:18;15.87;;;5.93;;
14116;SDS011;7137;51.436;6.544;2024-03-25T08:11:19;14.10;;;5.87;;
14116;SDS011;7137;51.436;6.544;2024-03-25T08:14:21;13.63;;;6.23;;
14116;SDS011;7137;51.436;6.544;2024-03-25T08:17:22;14.47;;;5.77;;
14116;SDS011;7137;51.436;6.544;2024-03-25T08:20:23;13.77;;;5.37;;
14116;SDS011;7137;51.436;6.544;2024-03-25T08:23:23;14.17;;;5.93;;
14116;SDS011;7137;51.436;6.544;2024-03-25T08:26:24;12.67;;;5.13;;
14116;SDS011;7137;51.436;6.544;2024-03-25T08:29:26;14.47;;;5.23;;
14116;SDS011;7137;51.436;6.544;2024-03-25T08:32:26;12.40;;;4.83;;
14116;SDS011;7137;51.436;6.544;2024-03-25T08:35:27;11.27;;;4.70;;
14116;SDS011;7137;51.436;6.544;2024-03-25T08:38:28;14.63;;;5.87;;
14116;SDS011;7137;51.436;6.544;2024-03-25T08:41:28;13.17;;;4.73;;
14116;SDS011;7137;51.436;6.544;2024-03-25T08:44:30;13.33;;;5.10;;
14116;SDS011;7137;51.436;6.544;2024-03-25T08:47:31;12.53;;;5.03;;
14116;SDS011;7137;51.436;6.544;2024-03-25T08:50:32;12.40;;;4.33;;
14116;SDS011;7137;51.436;6.544;2024-03-25T08:53:32;10.37;;;4.37;;
14116;SDS011;7137;51.436;6.544;2024-03-25T08:56:33;10.47;;;4.50;;
14116;SDS011;7137;51.436;6.544;2024-03-25T08:59:35;8.33;;;3.73;;
14116;SDS011;7137;51.436;6.544;2024-03-25T09:02:36;10.63;;;4.63;;
14116;SDS011;7137;51.436;6.544;2024-03-25T09:05:36;9.87;;;4.03;;
14116;SDS011;7137;51.436;6.544;2024-03-25T09:08:37;12.27;;;3.43;;
14116;SDS011;7137;51.436;6.544;2024-03-25T09:11:53;11.13;;;3.57;;
14116;SDS011;7137;51.436;6.544;2024-03-25T09:14:55;13.20;;;3.13;;
14116;SDS011;7137;51.436;6.544;2024-03-25T09:17:55;13.87;;;3.63;;
14116;SDS011;7137;51.436;6.544;2024-03-25T09:20:56;11.27;;;3.10;;
14116;SDS011;7137;51.436;6.544;2024-03-25T09:23:57;12.13;;;2.60;;
14116;SDS011;7137;51.436;6.544;2024-03-25T09:26:57;8.93;;;2.33;;
14116;SDS011;7137;51.436;6.544;2024-03-25T09:30:03;12.20;;;2.50;;
14116;SDS011;7137;51.436;6.544;2024-03-25T09:33:21;9.63;;;2.70;;
14116;SDS011;7137;51.436;6.544;2024-03-25T09:36:22;9.67;;;2.40;;
14116;SDS011;7137;51.436;6.544;2024-03-25T09:39:22;12.63;;;2.90;;
14116;SDS011;7137;51.436;6.544;2024-03-25T09:42:25;10.90;;;3.20;;
14116;SDS011;7137;51.436;6.544;2024-03-25T09:45:29;12.47;;;3.20;;
14116;SDS011;7137;51.436;6.544;2024-03-25T09:48:31;10.27;;;3.17;;
14116;SDS011;7137;51.436;6.544;2024-03-25T09:51:32;9.60;;;3.00;;
14116;SDS011;7137;51.436;6.544;2024-03-25T09:54:33;11.63;;;3.37;;
14116;SDS011;7137;51.436;6.544;2024-03-25T09:57:34;11.23;;;3.17;;
14116;SDS011;7137;51.436;6.544;2024-03-25T10:00:37;8.67;;;3.30;;
14116;SDS011;7137;51.436;6.544;2024-03-25T10:03:37;10.27;;;3.53;;
14116;SDS011;7137;51.436;6.544;2024-03-25T10:06:39;10.43;;;3.60;;
14116;SDS011;7137;51.436;6.544;2024-03-25T10:09:40;10.53;;;3.53;;
14116;SDS011;7137;51.436;6.544;2024-03-25T10:12:40;11.73;;;3.70;;
14116;SDS011;7137;51.436;6.544;2024-03-25T10:15:42;9.47;;;3.50;;
14116;SDS011;7137;51.436;6.544;2024-03-25T10:18:43;10.37;;;3.43;;
14116;SDS011;7137;51.436;6.544;2024-03-25T10:21:44;9.97;;;3.27;;
14116;SDS011;7137;51.436;6.544;2024-03-25T10:24:45;13.23;;;4.10;;
14116;SDS011;7137;51.436;6.544;2024-03-25T10:27:52;11.80;;;4.43;;
14116;SDS011;7137;51.436;6.544;2024-03-25T10:30:55;13.23;;;4.23;;
14116;SDS011;7137;51.436;6.544;2024-03-25T10:34:03;11.57;;;3.90;;
14116;SDS011;7137;51.436;6.544;2024-03-25T10:37:03;8.07;;;3.90;;
14116;SDS011;7137;51.436;6.544;2024-03-25T10:40:05;9.43;;;3.50;;
14116;SDS011;7137;51.436;6.544;2024-03-25T10:43:11;8.83;;;3.87;;
14116;SDS011;7137;51.436;6.544;2024-03-25T10:46:14;10.23;;;4.00;;
14116;SDS011;7137;51.436;6.544;2024-03-25T10:49:19;9.63;;;3.50;;
14116;SDS011;7137;51.436;6.544;2024-03-25T10:52:27;9.30;;;3.57;;
14116;SDS011;7137;51.436;6.544;2024-03-25T10:55:29;11.80;;;4.10;;
14116;SDS011;7137;51.436;6.544;2024-03-25T10:58:31;9.93;;;3.33;;
14116;SDS011;7137;51.436;6.544;2024-03-25T11:01:35;9.43;;;3.67;;
14116;SDS011;7137;51.436;6.544;2024-03-25T11:04:36;9.00;;;3.57;;
14116;SDS011;7137;51.436;6.544;2024-03-25T11:07:37;9.67;;;4.13;;
14116;SDS011;7137;51.436;6.544;2024-03-25T11:10:41;10.63;;;3.80;;
14116;SDS011;7137;51.436;6.544;2024-03-25T11:13:43;10.07;;;3.80;;
14116;SDS011;7137;51.436;6.544;2024-03-25T11:16:50;13.33;;;4.17;;
14116;SDS011;7137;51.436;6.544;2024-03-25T11:19:51;7.73;;;3.20;;
14116;SDS011;7137;51.436;6.544;2024-03-25T11:22:52;7.57;;;2.93;;
14116;SDS011;7137;51.436;6.544;2024-03-25T11:25:56;9.67;;;3.87;;
14116;SDS011;7137;51.436;6.544;2024-03-25T11:28:57;11.37;;;3.93;;
14116;SDS011;7137;51.436;6.544;2024-03-25T11:31:59;10.00;;;3.70;;
14116;SDS011;7137;51.436;6.544;2024-03-25T11:35:03;9.73;;;3.87;;
14116;SDS011;7137;51.436;6.544;2024-03-25T11:38:04;10.97;;;4.03;;
14116;SDS011;7137;51.436;6.544;2024-03-25T11:41:05;13.40;;;4.17;;
14116;SDS011;7137;51.436;6.544;2024-03-25T11:44:07;9.57;;;3.50;;
14116;SDS011;7137;51.436;6.544;2024-03-25T11:47:10;9.87;;;3.73;;
14116;SDS011;7137;51.436;6.544;2024-03-25T11:50:12;7.77;;;3.80;;
14116;SDS011;7137;51.436;6.544;2024-03-25T11:53:14;8.97;;;3.90;;
14116;SDS011;7137;51.436;6.544;2024-03-25T11:56:15;10.43;;;4.17;;
14116;SDS011;7137;51.436;6.544;2024-03-25T11:59:15;9.63;;;4.40;;
14116;SDS011;7137;51.436;6.544;2024-03-25T12:02:17;9.23;;;3.90;;
14116;SDS011;7137;51.436;6.544;2024-03-25T12:05:18;10.80;;;4.23;;
14116;SDS011;7137;51.436;6.544;2024-03-25T12:08:19;9.43;;;4.07;;
14116;SDS011;7137;51.436;6.544;2024-03-25T12:11:20;10.37;;;4.07;;
14116;SDS011;7137;51.436;6.544;2024-03-25T12:14:21;8.37;;;4.20;;
14116;SDS011;7137;51.436;6.544;2024-03-25T12:17:23;10.57;;;3.73;;
14116;SDS011;7137;51.436;6.544;2024-03-25T12:20:24;10.47;;;4.00;;
14116;SDS011;7137;51.436;6.544;2024-03-25T12:23:28;10.13;;;4.87;;
14116;SDS011;7137;51.436;6.544;2024-03-25T12:26:30;8.30;;;3.90;;
14116;SDS011;7137;51.436;6.544;2024-03-25T12:29:31;9.40;;;3.63;;
14116;SDS011;7137;51.436;6.544;2024-03-25T12:32:36;10.30;;;4.87;;
14116;SDS011;7137;51.436;6.544;2024-03-25T12:35:38;10.33;;;4.40;;
14116;SDS011;7137;51.436;6.544;2024-03-25T12:38:38;9.03;;;3.93;;
14116;SDS011;7137;51.436;6.544;2024-03-25T12:41:39;9.53;;;4.70;;
14116;SDS011;7137;51.436;6.544;2024-03-25T12:44:40;10.40;;;4.17;;
14116;SDS011;7137;51.436;6.544;2024-03-25T12:47:42;9.13;;;4.17;;
14116;SDS011;7137;51.436;6.544;2024-03-25T12:50:43;9.00;;;4.43;;
14116;SDS011;7137;51.436;6.544;2024-03-25T12:53:44;10.30;;;3.90;;
14116;SDS011;7137;51.436;6.544;2024-03-25T12:56:45;10.03;;;3.90;;
14116;SDS011;7137;51.436;6.544;2024-03-25T12:59:45;9.57;;;4.13;;
14116;SDS011;7137;51.436;6.544;2024-03-25T13:02:47;8.53;;;4.10;;
14116;SDS011;7137;51.436;6.544;2024-03-25T13:05:49;7.80;;;3.80;;
14116;SDS011;7137;51.436;6.544;2024-03-25T13:08:49;10.83;;;3.93;;
14116;SDS011;7137;51.436;6.544;2024-03-25T13:11:50;8.17;;;4.30;;
14116;SDS011;7137;51.436;6.544;2024-03-25T13:14:51;6.97;;;4.00;;
14116;SDS011;7137;51.436;6.544;2024-03-25T13:17:53;8.20;;;4.27;;
14116;SDS011;7137;51.436;6.544;2024-03-25T13:20:53;9.53;;;4.03;;
14116;SDS011;7137;51.436;6.544;2024-03-25T13:23:54;8.50;;;4.50;;
14116;SDS011;7137;51.436;6.544;2024-03-25T13:26:55;8.43;;;4.10;;
14116;SDS011;7137;51.436;6.544;2024-03-25T13:29:55;9.10;;;3.90;;
14116;SDS011;7137;51.436;6.544;2024-03-25T13:32:57;9.00;;;4.30;;
14116;SDS011;7137;51.436;6.544;2024-03-25T13:35:58;9.37;;;4.50;;
14116;SDS011;7137;51.436;6.544;2024-03-25T13:38:59;8.03;;;4.07;;
14116;SDS011;7137;51.436;6.544;2024-03-25T13:41:59;7.17;;;3.90;;
14116;SDS011;7137;51.436;6.544;2024-03-25T13:45:00;8.97;;;3.90;;
14116;SDS011;7137;51.436;6.544;2024-03-25T13:48:02;8.57;;;4.17;;
14116;SDS011;7137;51.436;6.544;2024-03-25T13:51:03;7.67;;;3.77;;
14116;SDS011;7137;51.436;6.544;2024-03-25T13:54:04;8.50;;;4.30;;
14116;SDS011;7137;51.436;6.544;2024-03-25T13:57:05;7.73;;;3.83;;
14116;SDS011;7137;51.436;6.544;2024-03-25T14:00:06;7.60;;;3.57;;
14116;SDS011;7137;51.436;6.544;2024-03-25T14:03:09;7.90;;;3.77;;
14116;SDS011;7137;51.436;6.544;2024-03-25T14:06:10;7.43;;;4.30;;
14116;SDS011;7137;51.436;6.544;2024-03-25T14:09:13;7.17;;;3.93;;
14116;SDS011;7137;51.436;6.544;2024-03-25T14:12:23;8.57;;;3.77;;
14116;SDS011;7137;51.436;6.544;2024-03-25T14:15:24;8.30;;;3.43;;
14116;SDS011;7137;51.436;6.544;2024-03-25T14:18:26;7.27;;;3.87;;
14116;SDS011;7137;51.436;6.544;2024-03-25T14:21:27;9.17;;;3.90;;
14116;SDS011;7137;51.436;6.544;2024-03-25T14:24:28;6.70;;;3.30;;
14116;SDS011;7137;51.436;6.544;2024-03-25T14:27:28;8.63;;;4.17;;
14116;SDS011;7137;51.436;6.544;2024-03-25T14:30:29;6.93;;;3.63;;
14116;SDS011;7137;51.436;6.544;2024-03-25T14:33:31;7.60;;;3.77;;
14116;SDS011;7137;51.436;6.544;2024-03-25T14:36:32;7.63;;;3.57;;
14116;SDS011;7137;51.436;6.544;2024-03-25T14:39:32;6.60;;;3.03;;
14116;SDS011;7137;51.436;6.544;2024-03-25T14:42:33;8.63;;;3.20;;
14116;SDS011;7137;51.436;6.544;2024-03-25T14:45:33;7.83;;;2.97;;
14116;SDS011;7137;51.436;6.544;2024-03-25T14:48:35;5.67;;;2.70;;
14116;SDS011;7137;51.436;6.544;2024-03-25T14:51:36;6.73;;;2.90;;
14116;SDS011;7137;51.436;6.544;2024-03-25T14:54:37;8.87;;;3.03;;
14116;SDS011;7137;51.436;6.544;2024-03-25T14:57:38;7.17;;;2.90;;
14116;SDS011;7137;51.436;6.544;2024-03-25T15:00:39;6.63;;;2.90;;
14116;SDS011;7137;51.436;6.544;2024-03-25T15:03:41;5.80;;;2.77;;
14116;SDS011;7137;51.436;6.544;2024-03-25T15:06:41;7.00;;;2.47;;
14116;SDS011;7137;51.436;6.544;2024-03-25T15:09:42;5.23;;;2.20;;
14116;SDS011;7137;51.436;6.544;2024-03-25T15:12:42;5.23;;;2.07;;
14116;SDS011;7137;51.436;6.544;2024-03-25T15:15:45;6.63;;;2.30;;
14116;SDS011;7137;51.436;6.544;2024-03-25T15:18:47;5.17;;;2.00;;
14116;SDS011;7137;51.436;6.544;2024-03-25T15:21:48;6.10;;;2.10;;
14116;SDS011;7137;51.436;6.544;2024-03-25T15:24:49;4.80;;;2.10;;
14116;SDS011;7137;51.436;6.544;2024-03-25T15:27:49;6.07;;;2.17;;
14116;SDS011;7137;51.436;6.544;2024-03-25T15:30:50;6.10;;;2.10;;
14116;SDS011;7137;51.436;6.544;2024-03-25T15:33:52;6.23;;;2.03;;
14116;SDS011;7137;51.436;6.544;2024-03-25T15:36:53;5.70;;;1.90;;
14116;SDS011;7137;51.436;6.544;2024-03-25T15:39:53;5.20;;;1.80;;
14116;SDS011;7137;51.436;6.544;2024-03-25T15:42:54;5.13;;;1.70;;
14116;SDS011;7137;51.436;6.544;2024-03-25T15:45:55;5.27;;;1.93;;
14116;SDS011;7137;51.436;6.544;2024-03-25T15:48:57;6.13;;;1.80;;
14116;SDS011;7137;51.436;6.544;2024-03-25T15:51:58;3.97;;;1.47;;
14116;SDS011;7137;51.436;6.544;2024-03-25T15:54:58;6.53;;;1.90;;
14116;SDS011;7137;51.436;6.544;2024-03-25T15:58:00;5.37;;;1.53;;
14116;SDS011;7137;51.436;6.544;2024-03-25T16:01:01;4.93;;;1.50;;
14116;SDS011;7137;51.436;6.544;2024-03-25T16:04:04;3.73;;;1.40;;
14116;SDS011;7137;51.436;6.544;2024-03-25T16:07:04;4.93;;;1.60;;
14116;SDS011;7137;51.436;6.544;2024-03-25T16:10:05;6.60;;;2.00;;
14116;SDS011;7137;51.436;6.544;2024-03-25T16:13:07;4.90;;;1.63;;
14116;SDS011;7137;51.436;6.544;2024-03-25T16:16:08;6.10;;;1.87;;
14116;SDS011;7137;51.436;6.544;2024-03-25T16:19:10;5.00;;;1.70;;
14116;SDS011;7137;51.436;6.544;2024-03-25T16:22:10;4.97;;;1.90;;
14116;SDS011;7137;51.436;6.544;2024-03-25T16:25:11;6.97;;;1.97;;
14116;SDS011;7137;51.436;6.544;2024-03-25T16:28:12;5.07;;;1.90;;
14116;SDS011;7137;51.436;6.544;2024-03-25T16:31:13;6.83;;;2.10;;
14116;SDS011;7137;51.436;6.544;2024-03-25T16:34:15;6.03;;;1.83;;
14116;SDS011;7137;51.436;6.544;2024-03-25T16:37:15;7.40;;;1.70;;
14116;SDS011;7137;51.436;6.544;2024-03-25T16:40:16;6.13;;;1.80;;
14116;SDS011;7137;51.436;6.544;2024-03-25T16:43:17;5.57;;;1.80;;
14116;SDS011;7137;51.436;6.544;2024-03-25T16:46:17;8.47;;;2.60;;
14116;SDS011;7137;51.436;6.544;2024-03-25T16:49:19;6.50;;;1.80;;
14116;SDS011;7137;51.436;6.544;2024-03-25T16:52:20;8.10;;;2.10;;
14116;SDS011;7137;51.436;6.544;2024-03-25T16:55:21;5.13;;;1.77;;
14116;SDS011;7137;51.436;6.544;2024-03-25T16:58:21;4.47;;;1.50;;
14116;SDS011;7137;51.436;6.544;2024-03-25T17:01:22;7.07;;;1.77;;
14116;SDS011;7137;51.436;6.544;2024-03-25T17:04:24;5.57;;;1.80;;
14116;SDS011;7137;51.436;6.544;2024-03-25T17:07:25;7.43;;;2.10;;
14116;SDS011;7137;51.436;6.544;2024-03-25T17:10:25;5.83;;;2.07;;
14116;SDS011;7137;51.436;6.544;2024-03-25T17:13:30;6.00;;;1.70;;
14116;SDS011;7137;51.436;6.544;2024-03-25T17:16:31;6.57;;;2.47;;
14116;SDS011;7137;51.436;6.544;2024-03-25T17:19:33;7.50;;;2.30;;
14116;SDS011;7137;51.436;6.544;2024-03-25T17:22:34;7.63;;;2.80;;
14116;SDS011;7137;51.436;6.544;2024-03-25T17:25:36;8.13;;;2.60;;
14116;SDS011;7137;51.436;6.544;2024-03-25T17:28:37;9.00;;;2.40;;
14116;SDS011;7137;51.436;6.544;2024-03-25T17:31:37;5.20;;;1.90;;
14116;SDS011;7137;51.436;6.544;2024-03-25T17:34:39;6.77;;;2.00;;
14116;SDS011;7137;51.436;6.544;2024-03-25T17:37:40;5.47;;;1.70;;
14116;SDS011;7137;51.436;6.544;2024-03-25T17:40:41;6.67;;;1.80;;
14116;SDS011;7137;51.436;6.544;2024-03-25T17:43:41;5.53;;;1.73;;
14116;SDS011;7137;51.436;6.544;2024-03-25T17:46:42;6.47;;;1.87;;
14116;SDS011;7137;51.436;6.544;2024-03-25T17:49:44;5.20;;;1.80;;
14116;SDS011;7137;51.436;6.544;2024-03-25T17:52:45;6.67;;;2.00;;
14116;SDS011;7137;51.436;6.544;2024-03-25T17:55:45;3.53;;;1.63;;
14116;SDS011;7137;51.436;6.544;2024-03-25T17:58:46;5.73;;;1.40;;
14116;SDS011;7137;51.436;6.544;2024-03-25T18:01:47;6.13;;;1.50;;
14116;SDS011;7137;51.436;6.544;2024-03-25T18:04:49;5.87;;;1.77;;
14116;SDS011;7137;51.436;6.544;2024-03-25T18:07:49;7.27;;;2.20;;
14116;SDS011;7137;51.436;6.544;2024-03-25T18:10:50;7.00;;;1.80;;
14116;SDS011;7137;51.436;6.544;2024-03-25T18:13:51;5.20;;;1.83;;
14116;SDS011;7137;51.436;6.544;2024-03-25T18:16:51;6.23;;;2.13;;
14116;SDS011;7137;51.436;6.544;2024-03-25T18:19:53;4.67;;;1.50;;